createdAt,value
2018-04-22T00:00:30.928Z,65.10
2018-04-22T00:02:58.840Z,65.43
2018-04-22T00:05:26.748Z,65.66
2018-04-22T00:07:54.696Z,65.35
2018-04-22T00:10:22.608Z,65.05
2018-04-22T00:12:50.551Z,65.30
2018-04-22T00:15:18.450Z,64.93
2018-04-22T00:17:46.354Z,64.72
2018-04-22T00:20:14.750Z,64.33
2018-04-22T00:22:42.700Z,63.89
2018-04-22T00:25:10.620Z,64.14
2018-04-22T00:27:38.600Z,64.24
2018-04-22T00:30:06.509Z,64.24
2018-04-22T00:32:34.427Z,64.29
2018-04-22T00:35:02.349Z,64.77
2018-04-22T00:37:30.283Z,64.56
2018-04-22T00:39:58.206Z,63.11
2018-04-22T00:42:26.142Z,62.75
2018-04-22T00:44:54.063Z,61.81
2018-04-22T00:47:21.992Z,61.42
2018-04-22T00:49:49.899Z,61.95
2018-04-22T00:52:17.834Z,61.55
2018-04-22T00:54:45.743Z,60.69
2018-04-22T00:57:13.658Z,61.10
2018-04-22T00:59:42.197Z,60.61
2018-04-22T01:02:10.112Z,61.04
2018-04-22T01:04:38.027Z,61.00
2018-04-22T01:07:05.955Z,61.69
2018-04-22T01:09:33.889Z,62.07
2018-04-22T01:12:01.803Z,62.16
2018-04-22T01:14:29.727Z,62.00
2018-04-22T01:16:57.676Z,62.22
2018-04-22T01:19:25.621Z,62.23
2018-04-22T01:21:53.636Z,61.99
2018-04-22T01:24:21.570Z,61.59
2018-04-22T01:26:49.672Z,62.38
2018-04-22T01:29:17.553Z,63.93
2018-04-22T01:31:45.475Z,62.20
2018-04-22T01:34:13.447Z,63.81
2018-04-22T01:36:41.334Z,65.30
2018-04-22T01:39:09.232Z,66.14
2018-04-22T01:41:37.167Z,66.24
2018-04-22T01:44:05.086Z,66.81
2018-04-22T01:46:32.971Z,66.88
2018-04-22T01:49:00.905Z,66.81
2018-04-22T01:51:28.884Z,67.22
2018-04-22T01:53:56.797Z,67.45
2018-04-22T01:56:24.711Z,67.36
2018-04-22T01:58:52.635Z,68.01
2018-04-22T02:01:20.548Z,68.34
2018-04-22T02:03:48.484Z,68.53
2018-04-22T02:06:16.451Z,69.71
2018-04-22T02:08:44.541Z,69.78
2018-04-22T02:11:12.436Z,70.19
2018-04-22T02:13:40.362Z,70.22
2018-04-22T02:16:08.269Z,70.39
2018-04-22T02:18:36.210Z,70.74
2018-04-22T02:21:04.145Z,70.97
2018-04-22T02:23:32.062Z,70.71
2018-04-22T02:25:59.980Z,71.51
2018-04-22T02:28:27.906Z,71.93
2018-04-22T02:30:55.839Z,71.85
2018-04-22T02:33:23.774Z,72.17
2018-04-22T02:35:51.699Z,71.91
2018-04-22T02:38:19.849Z,70.95
2018-04-22T02:40:47.802Z,72.16
2018-04-22T02:43:15.708Z,72.00
2018-04-22T02:45:43.640Z,72.14
2018-04-22T02:48:11.536Z,72.38
2018-04-22T02:50:39.490Z,72.52
2018-04-22T02:53:07.463Z,72.85
2018-04-22T02:55:35.344Z,72.82
2018-04-22T02:58:03.282Z,72.82
2018-04-22T03:00:31.378Z,73.10
2018-04-22T03:02:59.370Z,73.75
2018-04-22T03:05:27.293Z,73.85
2018-04-22T03:07:55.403Z,75.14
2018-04-22T03:10:23.478Z,75.37
2018-04-22T03:12:51.423Z,75.63
2018-04-22T03:15:19.392Z,76.14
2018-04-22T03:17:47.309Z,76.18
2018-04-22T03:20:15.220Z,75.75
2018-04-22T03:22:43.148Z,75.83
2018-04-22T03:25:11.072Z,75.98
2018-04-22T03:27:39.808Z,75.82
2018-04-22T03:30:07.753Z,76.36
2018-04-22T03:32:35.659Z,77.08
2018-04-22T03:35:03.575Z,76.88
2018-04-22T03:37:31.498Z,77.10
2018-04-22T03:39:59.408Z,76.99
2018-04-22T03:42:27.416Z,76.68
2018-04-22T03:44:55.300Z,76.50
2018-04-22T03:47:23.199Z,76.78
2018-04-22T03:49:51.107Z,77.03
2018-04-22T03:52:19.074Z,76.62
2018-04-22T03:54:46.976Z,76.63
2018-04-22T03:57:14.899Z,76.62
2018-04-22T03:59:42.832Z,76.24
2018-04-22T04:02:10.832Z,76.24
2018-04-22T04:04:38.814Z,76.63
2018-04-22T04:07:06.820Z,76.91
2018-04-22T04:09:34.799Z,77.12
2018-04-22T04:12:02.851Z,77.95
2018-04-22T04:14:30.827Z,77.51
2018-04-22T04:16:58.832Z,77.63
2018-04-22T04:19:38.681Z,77.56
2018-04-22T04:22:18.520Z,77.24
2018-04-22T04:24:58.361Z,78.04
2018-04-22T04:30:19.620Z,78.69
2018-04-22T04:32:47.640Z,79.29
2018-04-22T04:35:15.624Z,78.91
2018-04-22T04:37:43.591Z,78.53
2018-04-22T04:40:11.741Z,78.15
2018-04-22T04:42:39.773Z,78.30
2018-04-22T04:45:07.880Z,78.33
2018-04-22T04:47:35.910Z,78.06
2018-04-22T04:50:03.893Z,78.27
2018-04-22T04:52:31.880Z,78.20
2018-04-22T04:54:59.868Z,78.03
2018-04-22T04:57:27.857Z,78.02
2018-04-22T04:59:55.842Z,78.27
2018-04-22T05:02:23.824Z,79.01
2018-04-22T05:04:51.819Z,78.54
2018-04-22T05:07:19.790Z,78.28
2018-04-22T05:09:47.804Z,78.59
2018-04-22T05:12:15.772Z,78.13
2018-04-22T05:14:43.752Z,78.36
2018-04-22T05:17:11.746Z,78.26
2018-04-22T05:19:39.759Z,78.05
2018-04-22T05:22:07.732Z,78.08
2018-04-22T05:24:35.728Z,77.83
2018-04-22T05:27:03.731Z,78.30
2018-04-22T05:29:31.717Z,78.33
2018-04-22T05:31:59.676Z,77.92
2018-04-22T05:34:27.676Z,77.79
2018-04-22T05:36:55.756Z,77.55
2018-04-22T05:39:24.010Z,77.28
2018-04-22T05:41:53.946Z,77.59
2018-04-22T05:44:21.961Z,76.84
2018-04-22T05:46:50.017Z,77.08
2018-04-22T05:49:19.493Z,77.36
2018-04-22T05:51:47.542Z,77.00
2018-04-22T05:54:15.807Z,76.76
2018-04-22T05:56:43.847Z,76.77
2018-04-22T05:59:11.900Z,76.57
2018-04-22T06:01:39.952Z,76.17
2018-04-22T06:04:07.936Z,75.50
2018-04-22T06:06:36.096Z,74.60
2018-04-22T06:09:04.211Z,74.54
2018-04-22T06:11:32.212Z,74.22
2018-04-22T06:14:00.352Z,73.41
2018-04-22T06:16:28.399Z,72.61
2018-04-22T06:18:56.396Z,71.55
2018-04-22T06:21:24.391Z,70.53
2018-04-22T06:23:53.467Z,69.14
2018-04-22T06:26:21.472Z,66.65
2018-04-22T06:28:49.444Z,66.01
2018-04-22T06:31:17.447Z,64.92
2018-04-22T06:33:45.419Z,63.56
2018-04-22T06:36:13.392Z,63.59
2018-04-22T06:38:41.367Z,63.26
2018-04-22T06:41:09.454Z,62.16
2018-04-22T06:43:37.429Z,61.38
2018-04-22T06:46:05.615Z,60.82
2018-04-22T06:48:34.211Z,59.73
2018-04-22T06:51:02.228Z,58.68
2018-04-22T06:53:30.325Z,58.77
2018-04-22T06:55:58.330Z,58.05
2018-04-22T06:58:26.952Z,58.28
2018-04-22T07:00:54.928Z,56.47
2018-04-22T07:03:22.895Z,56.07
2018-04-22T07:05:51.798Z,56.13
2018-04-22T07:08:19.820Z,54.30
2018-04-22T07:10:47.863Z,53.97
2018-04-22T07:13:15.865Z,54.49
2018-04-22T07:15:43.852Z,53.02
2018-04-22T07:18:11.839Z,52.88
2018-04-22T07:20:39.822Z,53.05
2018-04-22T07:23:07.797Z,50.18
2018-04-22T07:25:35.793Z,50.95
2018-04-22T07:28:03.769Z,49.34
2018-04-22T07:30:31.787Z,48.05
2018-04-22T07:32:59.758Z,48.37
2018-04-22T07:35:27.765Z,47.17
2018-04-22T07:37:55.739Z,46.92
2018-04-22T07:40:23.720Z,47.11
2018-04-22T07:42:51.708Z,47.36
2018-04-22T07:45:19.679Z,48.44
2018-04-22T07:47:47.701Z,48.37
2018-04-22T07:50:15.684Z,47.92
2018-04-22T07:52:43.655Z,47.85
2018-04-22T07:55:11.660Z,46.19
2018-04-22T07:57:39.636Z,46.72
2018-04-22T08:00:07.641Z,46.89
2018-04-22T08:02:35.708Z,47.27
2018-04-22T08:05:03.729Z,46.60
2018-04-22T08:07:31.702Z,47.17
2018-04-22T08:09:59.704Z,45.16
2018-04-22T08:12:27.674Z,44.98
2018-04-22T08:14:55.696Z,44.08
2018-04-22T08:17:23.701Z,42.91
2018-04-22T08:19:51.791Z,42.56
2018-04-22T08:22:20.835Z,44.65
2018-04-22T08:24:48.855Z,45.22
2018-04-22T08:27:17.019Z,44.67
2018-04-22T08:29:45.033Z,43.32
2018-04-22T08:32:13.030Z,42.56
2018-04-22T08:34:41.008Z,42.52
2018-04-22T08:37:08.978Z,42.70
2018-04-22T08:39:36.972Z,42.13
2018-04-22T08:42:05.052Z,42.45
2018-04-22T08:44:33.123Z,43.49
2018-04-22T08:47:01.158Z,41.92
2018-04-22T08:49:29.152Z,40.77
2018-04-22T08:51:57.163Z,39.67
2018-04-22T08:54:25.146Z,38.40
2018-04-22T08:56:53.131Z,37.16
2018-04-22T08:59:21.166Z,38.17
2018-04-22T09:01:49.457Z,39.20
2018-04-22T09:04:17.454Z,39.48
2018-04-22T09:06:45.491Z,39.55
2018-04-22T09:09:13.495Z,41.03
2018-04-22T09:11:42.969Z,39.51
2018-04-22T09:14:10.967Z,36.32
2018-04-22T09:16:39.096Z,36.14
2018-04-22T09:19:07.096Z,35.44
2018-04-22T09:21:35.094Z,36.51
2018-04-22T09:24:03.068Z,35.95
2018-04-22T09:26:31.186Z,37.44
2018-04-22T09:28:59.200Z,36.21
2018-04-22T09:31:27.242Z,36.14
2018-04-22T09:33:55.246Z,35.29
2018-04-22T09:36:23.240Z,35.06
2018-04-22T09:38:51.251Z,34.89
2018-04-22T09:41:19.296Z,34.92
2018-04-22T09:43:47.268Z,35.52
2018-04-22T09:46:15.266Z,36.32
2018-04-22T09:48:43.474Z,35.86
2018-04-22T09:51:11.963Z,37.89
2018-04-22T09:53:39.931Z,37.09
2018-04-22T09:56:07.923Z,37.01
2018-04-22T09:58:35.911Z,36.82
2018-04-22T10:01:03.951Z,36.19
2018-04-22T10:03:31.931Z,38.06
2018-04-22T10:06:01.817Z,37.17
2018-04-22T10:08:29.827Z,35.97
2018-04-22T10:10:57.850Z,36.51
2018-04-22T10:13:25.860Z,35.41
2018-04-22T10:15:53.854Z,35.69
2018-04-22T10:18:21.881Z,34.57
2018-04-22T10:20:49.860Z,34.20
2018-04-22T10:23:17.883Z,31.49
2018-04-22T10:25:45.879Z,31.54
2018-04-22T10:28:13.903Z,30.56
2018-04-22T10:30:41.925Z,31.06
2018-04-22T10:33:09.894Z,30.64
2018-04-22T10:35:37.881Z,30.26
2018-04-22T10:38:05.910Z,30.62
2018-04-22T10:40:33.907Z,31.38
2018-04-22T10:43:01.895Z,31.51
2018-04-22T10:45:30.093Z,31.03
2018-04-22T10:47:58.172Z,31.43
2018-04-22T10:50:26.166Z,30.61
2018-04-22T10:52:54.217Z,30.97
2018-04-22T10:55:22.389Z,29.34
2018-04-22T10:57:50.618Z,28.76
2018-04-22T11:00:18.604Z,29.35
2018-04-22T11:02:46.591Z,28.58
2018-04-22T11:05:14.631Z,28.65
2018-04-22T11:07:42.748Z,28.51
2018-04-22T11:10:10.736Z,27.70
2018-04-22T11:12:39.160Z,28.84
2018-04-22T11:15:07.127Z,30.04
2018-04-22T11:17:35.111Z,30.32
2018-04-22T11:20:03.078Z,29.74
2018-04-22T11:22:31.181Z,29.76
2018-04-22T11:24:59.230Z,28.36
2018-04-22T11:27:27.241Z,28.94
2018-04-22T11:29:55.196Z,29.61
2018-04-22T11:32:23.191Z,28.19
2018-04-22T11:34:51.203Z,27.72
2018-04-22T11:37:19.259Z,30.71
2018-04-22T11:39:47.333Z,32.38
2018-04-22T11:42:15.301Z,31.24
2018-04-22T11:44:43.292Z,30.08
2018-04-22T11:47:11.323Z,28.65
2018-04-22T11:49:39.319Z,25.73
2018-04-22T11:52:07.286Z,25.61
2018-04-22T11:54:35.258Z,27.23
2018-04-22T11:57:03.312Z,27.74
2018-04-22T11:59:32.554Z,26.85
2018-04-22T12:02:00.626Z,28.01
2018-04-22T12:04:28.905Z,27.70
2018-04-22T12:06:56.890Z,31.92
2018-04-22T12:09:24.923Z,33.03
2018-04-22T12:11:52.907Z,33.38
2018-04-22T12:14:20.891Z,32.66
2018-04-22T12:16:48.871Z,33.29
2018-04-22T12:19:16.867Z,32.81
2018-04-22T12:21:44.839Z,32.63
2018-04-22T12:24:12.876Z,32.47
2018-04-22T12:26:40.871Z,32.94
2018-04-22T12:29:08.891Z,33.98
2018-04-22T12:31:36.976Z,33.85
2018-04-22T12:34:04.984Z,33.89
2018-04-22T12:36:32.996Z,35.18
2018-04-22T12:39:00.983Z,33.79
2018-04-22T12:41:28.974Z,32.73
2018-04-22T12:43:56.951Z,31.40
2018-04-22T12:46:24.957Z,31.89
2018-04-22T12:48:53.039Z,32.11
2018-04-22T12:51:21.607Z,30.46
2018-04-22T12:53:49.626Z,30.66
2018-04-22T12:56:18.020Z,27.69
2018-04-22T12:58:46.061Z,26.48
2018-04-22T13:01:14.082Z,26.37
2018-04-22T13:03:42.071Z,26.32
2018-04-22T13:06:10.057Z,28.03
2018-04-22T13:08:39.013Z,26.45
2018-04-22T13:11:07.072Z,26.10
2018-04-22T13:13:35.109Z,25.78
2018-04-22T13:16:03.096Z,27.11
2018-04-22T13:18:31.129Z,27.48
2018-04-22T13:20:59.107Z,27.37
2018-04-22T13:23:27.147Z,25.95
2018-04-22T13:25:55.151Z,25.76
2018-04-22T13:28:23.149Z,31.37
2018-04-22T13:30:51.131Z,31.80
2018-04-22T13:33:19.136Z,28.18
2018-04-22T13:35:47.092Z,25.99
2018-04-22T13:38:15.096Z,25.60
2018-04-22T13:40:43.765Z,25.82
2018-04-22T13:43:11.753Z,28.26
2018-04-22T13:45:39.739Z,31.64
2018-04-22T13:48:07.756Z,29.88
2018-04-22T13:50:35.748Z,29.60
2018-04-22T13:53:03.719Z,30.27
2018-04-22T13:55:31.728Z,32.11
2018-04-22T13:57:59.709Z,32.22
2018-04-22T14:00:27.711Z,34.22
2018-04-22T14:02:55.700Z,34.62
2018-04-22T14:05:23.715Z,34.60
2018-04-22T14:07:51.780Z,36.68
2018-04-22T14:10:19.775Z,36.22
2018-04-22T14:12:47.771Z,34.48
2018-04-22T14:15:15.763Z,34.89
2018-04-22T14:17:43.727Z,34.74
2018-04-22T14:20:11.719Z,32.16
2018-04-22T14:22:39.704Z,33.27
2018-04-22T14:25:07.765Z,32.00
2018-04-22T14:27:35.716Z,30.26
2018-04-22T14:30:03.719Z,31.45
2018-04-22T14:32:31.932Z,30.11
2018-04-22T14:34:59.951Z,28.36
2018-04-22T14:37:27.937Z,30.51
2018-04-22T14:39:55.913Z,32.83
2018-04-22T14:42:24.240Z,36.80
2018-04-22T14:45:04.047Z,37.92
2018-04-22T14:47:32.036Z,37.69
2018-04-22T14:50:00.163Z,38.21
2018-04-22T14:52:28.172Z,39.02
2018-04-22T14:54:56.442Z,38.03
2018-04-22T14:57:24.447Z,38.11
2018-04-22T14:59:52.423Z,39.97
2018-04-22T15:02:20.413Z,40.73
2018-04-22T15:04:48.399Z,38.25
2018-04-22T15:07:16.416Z,38.88
2018-04-22T15:09:44.503Z,36.49
2018-04-22T15:12:12.517Z,36.27
2018-04-22T15:14:40.505Z,34.09
2018-04-22T15:17:08.493Z,35.20
2018-04-22T15:19:36.524Z,34.57
2018-04-22T15:22:04.492Z,35.95
2018-04-22T15:24:32.669Z,36.46
2018-04-22T15:27:00.665Z,36.73
2018-04-22T15:29:28.658Z,37.11
2018-04-22T15:31:56.645Z,37.82
2018-04-22T15:34:24.620Z,37.49
2018-04-22T15:36:52.611Z,38.20
2018-04-22T15:39:20.598Z,39.01
2018-04-22T15:41:48.731Z,39.30
2018-04-22T15:44:16.707Z,39.40
2018-04-22T15:46:44.676Z,39.49
2018-04-22T15:49:12.639Z,40.41
2018-04-22T15:51:41.632Z,40.84
2018-04-22T15:54:10.004Z,40.46
2018-04-22T15:56:37.990Z,40.49
2018-04-22T15:59:05.959Z,40.49
2018-04-22T16:01:33.953Z,41.08
2018-04-22T16:04:01.932Z,41.57
2018-04-22T16:06:29.905Z,41.65
2018-04-22T16:08:58.118Z,41.89
2018-04-22T16:11:26.102Z,41.22
2018-04-22T16:13:54.073Z,41.90
2018-04-22T16:16:22.050Z,42.01
2018-04-22T16:18:50.025Z,42.10
2018-04-22T16:21:18.103Z,42.28
2018-04-22T16:23:46.055Z,42.82
2018-04-22T16:26:14.029Z,43.39
2018-04-22T16:28:42.031Z,42.80
2018-04-22T16:31:10.177Z,43.43
2018-04-22T16:33:38.753Z,43.83
2018-04-22T16:36:06.802Z,44.29
2018-04-22T16:38:34.807Z,43.90
2018-04-22T16:41:02.931Z,43.79
2018-04-22T16:43:30.923Z,43.35
2018-04-22T16:45:58.925Z,42.80
2018-04-22T16:48:27.569Z,42.94
2018-04-22T16:50:55.651Z,42.86
2018-04-22T16:53:23.625Z,43.03
2018-04-22T16:55:52.121Z,43.16
2018-04-22T16:58:20.152Z,42.82
2018-04-22T17:00:48.256Z,42.95
2018-04-22T17:03:16.305Z,43.00
2018-04-22T17:05:44.335Z,42.52
2018-04-22T17:08:12.312Z,42.77
2018-04-22T17:10:40.322Z,42.54
2018-04-22T17:13:08.395Z,44.74
2018-04-22T17:15:36.480Z,44.43
2018-04-22T17:18:04.563Z,44.35
2018-04-22T17:20:32.816Z,44.47
2018-04-22T17:23:04.405Z,44.83
2018-04-22T17:25:32.462Z,45.31
2018-04-22T17:28:01.648Z,45.44
2018-04-22T17:30:29.694Z,45.49
2018-04-22T17:32:57.673Z,45.80
2018-04-22T17:35:25.675Z,46.14
2018-04-22T17:37:53.661Z,45.91
2018-04-22T17:40:21.631Z,46.58
2018-04-22T17:42:49.614Z,46.36
2018-04-22T17:47:52.795Z,46.73
2018-04-22T17:50:20.885Z,47.30
2018-04-22T17:52:48.881Z,46.99
2018-04-22T17:55:16.846Z,47.02
2018-04-22T17:57:45.437Z,47.18
2018-04-22T18:00:13.409Z,47.38
2018-04-22T18:02:41.421Z,47.58
2018-04-22T18:05:09.488Z,48.23
2018-04-22T18:07:37.511Z,50.20
2018-04-22T18:10:06.351Z,52.20
2018-04-22T18:12:34.695Z,53.49
2018-04-22T18:15:02.734Z,53.88
2018-04-22T18:17:30.707Z,54.28
2018-04-22T18:19:58.740Z,55.26
2018-04-22T18:22:26.769Z,55.26
2018-04-22T18:24:54.779Z,55.72
2018-04-22T18:27:22.915Z,56.73
2018-04-22T18:29:50.920Z,56.83
2018-04-22T18:32:18.879Z,56.95
2018-04-22T18:34:48.234Z,56.93
2018-04-22T18:37:17.144Z,57.45
2018-04-22T18:39:45.438Z,57.45
2018-04-22T18:42:13.448Z,57.87
2018-04-22T18:44:41.555Z,58.09
2018-04-22T18:47:09.513Z,58.82
2018-04-22T18:49:37.868Z,58.90
2018-04-22T18:52:05.929Z,58.76
2018-04-22T18:54:33.935Z,59.10
2018-04-22T18:57:01.946Z,59.61
2018-04-22T18:59:30.217Z,59.36
2018-04-22T19:01:58.179Z,59.30
2018-04-22T19:04:26.153Z,59.35
2018-04-22T19:06:54.150Z,59.46
2018-04-22T19:09:22.144Z,60.44
2018-04-22T19:11:50.115Z,60.23
2018-04-22T19:14:18.120Z,60.67
2018-04-22T19:16:46.893Z,60.53
2018-04-22T19:19:15.744Z,60.38
2018-04-22T19:21:43.748Z,60.69
2018-04-22T19:24:11.770Z,61.30
2018-04-22T19:26:39.742Z,60.73
2018-04-22T19:29:07.727Z,61.05
2018-04-22T19:31:35.728Z,61.42
2018-04-22T19:34:03.800Z,61.44
2018-04-22T19:36:31.780Z,61.78
2018-04-22T19:39:00.323Z,61.86
2018-04-22T19:41:28.363Z,62.67
2018-04-22T19:43:56.715Z,62.91
2018-04-22T19:46:24.773Z,62.53
2018-04-22T19:48:52.779Z,62.56
2018-04-22T19:51:20.787Z,62.74
2018-04-22T19:53:48.817Z,62.26
2018-04-22T19:56:17.154Z,62.29
2018-04-22T19:58:45.171Z,62.68
2018-04-22T20:01:13.188Z,63.18
2018-04-22T20:03:41.613Z,63.21
2018-04-22T20:06:09.588Z,63.05
2018-04-22T20:08:37.568Z,63.31
2018-04-22T20:11:05.571Z,63.77
2018-04-22T20:13:33.559Z,63.37
2018-04-22T20:16:01.541Z,63.74
2018-04-22T20:18:29.538Z,63.74
2018-04-22T20:20:57.517Z,63.22
2018-04-22T20:23:25.938Z,63.89
2018-04-22T20:25:53.939Z,64.01
2018-04-22T20:28:21.981Z,64.24
2018-04-22T20:30:50.021Z,64.56
2018-04-22T20:33:17.979Z,64.18
2018-04-22T20:35:46.051Z,64.00
2018-04-22T20:38:14.019Z,64.72
2018-04-22T20:40:41.987Z,64.27
2018-04-22T20:43:09.963Z,64.43
2018-04-22T20:45:37.965Z,64.77
2018-04-22T20:48:06.348Z,64.80
2018-04-22T20:50:34.340Z,64.38
2018-04-22T20:53:02.389Z,64.18
2018-04-22T20:55:30.371Z,64.40
2018-04-22T20:57:59.276Z,64.06
2018-04-22T21:00:27.263Z,64.01
2018-04-22T21:02:55.260Z,63.82
2018-04-22T21:05:23.294Z,63.95
2018-04-22T21:07:51.268Z,64.40
2018-04-22T21:10:19.240Z,64.24
2018-04-22T21:12:47.267Z,64.30
2018-04-22T21:15:15.248Z,64.37
2018-04-22T21:17:43.219Z,64.45
2018-04-22T21:20:11.216Z,64.40
2018-04-22T21:22:39.267Z,64.21
2018-04-22T21:25:07.259Z,63.83
2018-04-22T21:27:35.255Z,64.82
2018-04-22T21:30:03.236Z,65.21
2018-04-22T21:32:31.205Z,65.09
2018-04-22T21:34:59.222Z,65.34
2018-04-22T21:37:27.247Z,65.69
2018-04-22T21:39:55.316Z,66.01
2018-04-22T21:42:23.287Z,66.56
2018-04-22T21:44:51.288Z,66.22
2018-04-22T21:47:19.257Z,66.22
2018-04-22T21:49:47.251Z,67.02
2018-04-22T21:52:15.236Z,67.21
2018-04-22T21:54:43.246Z,67.62
2018-04-22T21:57:11.276Z,67.39
2018-04-22T21:59:39.244Z,67.54
2018-04-22T22:02:07.268Z,67.84
2018-04-22T22:04:35.251Z,67.91
2018-04-22T22:07:03.257Z,67.92
2018-04-22T22:09:31.482Z,67.91
2018-04-22T22:11:59.767Z,68.04
2018-04-22T22:14:27.817Z,67.75
2018-04-22T22:16:56.510Z,68.25
2018-04-22T22:19:24.581Z,68.21
2018-04-22T22:21:52.552Z,68.13
2018-04-22T22:24:20.528Z,68.36
2018-04-22T22:26:48.551Z,69.16
2018-04-22T22:29:16.848Z,69.00
2018-04-22T22:31:44.846Z,69.41
2018-04-22T22:34:12.836Z,69.06
2018-04-22T22:36:40.820Z,68.91
2018-04-22T22:39:08.800Z,68.87
2018-04-22T22:41:36.814Z,68.86
2018-04-22T22:44:05.483Z,69.09
2018-04-22T22:46:33.493Z,69.30
2018-04-22T22:49:01.479Z,69.51
2018-04-22T22:51:29.448Z,69.36
2018-04-22T22:53:57.651Z,69.69
2018-04-22T22:56:25.639Z,69.65
2018-04-22T22:58:53.608Z,69.81
2018-04-22T23:01:21.609Z,70.07
2018-04-22T23:03:49.585Z,70.44
2018-04-22T23:06:17.547Z,70.71
2018-04-22T23:08:45.520Z,70.52
2018-04-22T23:11:13.496Z,70.71
2018-04-22T23:13:41.487Z,70.44
2018-04-22T23:16:09.667Z,70.41
2018-04-22T23:18:37.777Z,70.23
2018-04-22T23:21:05.771Z,69.90
2018-04-22T23:23:33.860Z,70.71
2018-04-22T23:26:01.830Z,70.65
2018-04-22T23:28:29.848Z,70.90
2018-04-22T23:30:57.827Z,70.42
2018-04-22T23:33:25.826Z,70.24
2018-04-22T23:35:53.844Z,71.06
2018-04-22T23:38:21.819Z,71.55
2018-04-22T23:40:49.820Z,70.96
2018-04-22T23:43:17.856Z,70.84
2018-04-22T23:45:45.871Z,71.26
2018-04-22T23:48:13.901Z,70.85
2018-04-22T23:50:41.876Z,69.87
2018-04-22T23:53:10.572Z,69.94
2018-04-22T23:55:38.553Z,70.28
2018-04-22T23:58:06.551Z,70.61
